sensor_id;sensor_type;location;lat;lon;timestamp;P1;durP1;ratioP1;P2;durP2;ratioP2
5454;SDS011;2750;49.050;9.250;2022-10-16T00:00:08;3.17;;;2.10;;
5454;SDS011;2750;49.050;9.250;2022-10-16T00:05:11;3.63;;;2.20;;
5454;SDS011;2750;49.050;9.250;2022-10-16T00:10:13;5.83;;;2.30;;
5454;SDS011;2750;49.050;9.250;2022-10-16T00:15:15;5.07;;;2.03;;
5454;SDS011;2750;49.050;9.250;2022-10-16T00:20:19;4.37;;;1.87;;
5454;SDS011;2750;49.050;9.250;2022-10-16T00:25:20;5.70;;;2.23;;
5454;SDS011;2750;49.050;9.250;2022-10-16T00:30:22;2.83;;;1.90;;
5454;SDS011;2750;49.050;9.250;2022-10-16T00:35:24;3.63;;;2.27;;
5454;SDS011;2750;49.050;9.250;2022-10-16T00:40:26;2.67;;;2.20;;
5454;SDS011;2750;49.050;9.250;2022-10-16T00:45:28;4.40;;;2.00;;
5454;SDS011;2750;49.050;9.250;2022-10-16T00:50:31;3.10;;;2.07;;
5454;SDS011;2750;49.050;9.250;2022-10-16T00:55:35;3.40;;;2.30;;
5454;SDS011;2750;49.050;9.250;2022-10-16T01:00:37;3.20;;;2.10;;
5454;SDS011;2750;49.050;9.250;2022-10-16T01:05:42;4.90;;;2.10;;
5454;SDS011;2750;49.050;9.250;2022-10-16T01:11:09;4.33;;;1.90;;
5454;SDS011;2750;49.050;9.250;2022-10-16T01:16:19;8.10;;;2.40;;
5454;SDS011;2750;49.050;9.250;2022-10-16T01:21:31;4.03;;;2.10;;
5454;SDS011;2750;49.050;9.250;2022-10-16T01:26:37;2.43;;;2.13;;
5454;SDS011;2750;49.050;9.250;2022-10-16T01:31:55;4.93;;;2.30;;
5454;SDS011;2750;49.050;9.250;2022-10-16T01:37:02;3.50;;;2.20;;
5454;SDS011;2750;49.050;9.250;2022-10-16T01:42:09;4.60;;;2.60;;
5454;SDS011;2750;49.050;9.250;2022-10-16T01:47:16;3.50;;;2.30;;
5454;SDS011;2750;49.050;9.250;2022-10-16T01:52:21;6.77;;;2.63;;
5454;SDS011;2750;49.050;9.250;2022-10-16T01:57:27;2.23;;;2.03;;
5454;SDS011;2750;49.050;9.250;2022-10-16T02:02:31;2.40;;;2.20;;
5454;SDS011;2750;49.050;9.250;2022-10-16T02:07:34;2.30;;;2.10;;
5454;SDS011;2750;49.050;9.250;2022-10-16T02:12:36;2.90;;;2.40;;
5454;SDS011;2750;49.050;9.250;2022-10-16T02:17:43;2.60;;;2.10;;
5454;SDS011;2750;49.050;9.250;2022-10-16T02:22:45;2.67;;;2.10;;
5454;SDS011;2750;49.050;9.250;2022-10-16T02:27:51;3.07;;;2.33;;
5454;SDS011;2750;49.050;9.250;2022-10-16T02:32:57;4.80;;;2.20;;
5454;SDS011;2750;49.050;9.250;2022-10-16T02:38:01;3.37;;;2.20;;
5454;SDS011;2750;49.050;9.250;2022-10-16T02:43:04;2.47;;;2.27;;
5454;SDS011;2750;49.050;9.250;2022-10-16T02:48:07;6.50;;;2.10;;
5454;SDS011;2750;49.050;9.250;2022-10-16T02:53:09;2.33;;;2.13;;
5454;SDS011;2750;49.050;9.250;2022-10-16T02:58:10;3.40;;;2.03;;
5454;SDS011;2750;49.050;9.250;2022-10-16T03:03:13;5.07;;;1.90;;
5454;SDS011;2750;49.050;9.250;2022-10-16T03:08:15;2.83;;;2.10;;
5454;SDS011;2750;49.050;9.250;2022-10-16T03:13:17;4.83;;;2.10;;
5454;SDS011;2750;49.050;9.250;2022-10-16T03:18:21;2.90;;;2.00;;
5454;SDS011;2750;49.050;9.250;2022-10-16T03:23:23;2.90;;;1.67;;
5454;SDS011;2750;49.050;9.250;2022-10-16T03:28:25;6.03;;;1.93;;
5454;SDS011;2750;49.050;9.250;2022-10-16T03:33:27;3.80;;;1.70;;
5454;SDS011;2750;49.050;9.250;2022-10-16T03:38:29;5.23;;;2.13;;
5454;SDS011;2750;49.050;9.250;2022-10-16T03:43:31;4.03;;;2.40;;
5454;SDS011;2750;49.050;9.250;2022-10-16T03:48:33;2.37;;;1.80;;
5454;SDS011;2750;49.050;9.250;2022-10-16T03:53:35;3.37;;;2.07;;
5454;SDS011;2750;49.050;9.250;2022-10-16T03:58:36;3.47;;;1.90;;
5454;SDS011;2750;49.050;9.250;2022-10-16T04:03:39;2.70;;;1.80;;
5454;SDS011;2750;49.050;9.250;2022-10-16T04:08:42;2.17;;;1.97;;
5454;SDS011;2750;49.050;9.250;2022-10-16T04:13:43;3.13;;;2.63;;
5454;SDS011;2750;49.050;9.250;2022-10-16T04:18:46;2.23;;;1.80;;
5454;SDS011;2750;49.050;9.250;2022-10-16T04:23:48;2.10;;;1.80;;
5454;SDS011;2750;49.050;9.250;2022-10-16T04:28:49;4.73;;;1.97;;
5454;SDS011;2750;49.050;9.250;2022-10-16T04:33:52;2.37;;;1.90;;
5454;SDS011;2750;49.050;9.250;2022-10-16T04:38:53;2.30;;;2.10;;
5454;SDS011;2750;49.050;9.250;2022-10-16T04:43:55;4.47;;;1.70;;
5454;SDS011;2750;49.050;9.250;2022-10-16T04:48:58;4.73;;;2.07;;
5454;SDS011;2750;49.050;9.250;2022-10-16T04:53:59;2.30;;;1.90;;
5454;SDS011;2750;49.050;9.250;2022-10-16T04:59:01;3.80;;;2.10;;
5454;SDS011;2750;49.050;9.250;2022-10-16T05:04:04;5.77;;;2.00;;
5454;SDS011;2750;49.050;9.250;2022-10-16T05:09:05;4.20;;;2.00;;
5454;SDS011;2750;49.050;9.250;2022-10-16T05:14:07;5.73;;;2.20;;
5454;SDS011;2750;49.050;9.250;2022-10-16T05:19:10;2.00;;;1.80;;
5454;SDS011;2750;49.050;9.250;2022-10-16T05:24:11;4.30;;;2.70;;
5454;SDS011;2750;49.050;9.250;2022-10-16T05:29:13;4.90;;;2.00;;
5454;SDS011;2750;49.050;9.250;2022-10-16T05:34:16;3.70;;;2.00;;
5454;SDS011;2750;49.050;9.250;2022-10-16T05:39:18;2.50;;;2.00;;
5454;SDS011;2750;49.050;9.250;2022-10-16T05:44:20;3.23;;;1.93;;
5454;SDS011;2750;49.050;9.250;2022-10-16T05:49:22;3.63;;;1.97;;
5454;SDS011;2750;49.050;9.250;2022-10-16T05:54:24;3.40;;;2.40;;
5454;SDS011;2750;49.050;9.250;2022-10-16T05:59:25;4.17;;;2.90;;
5454;SDS011;2750;49.050;9.250;2022-10-16T06:04:28;3.63;;;2.53;;
5454;SDS011;2750;49.050;9.250;2022-10-16T06:09:30;3.97;;;2.50;;
5454;SDS011;2750;49.050;9.250;2022-10-16T06:14:32;5.23;;;3.23;;
5454;SDS011;2750;49.050;9.250;2022-10-16T06:19:34;5.70;;;2.37;;
5454;SDS011;2750;49.050;9.250;2022-10-16T06:24:36;3.47;;;2.13;;
5454;SDS011;2750;49.050;9.250;2022-10-16T06:29:37;2.90;;;2.70;;
5454;SDS011;2750;49.050;9.250;2022-10-16T06:34:40;4.40;;;2.00;;
5454;SDS011;2750;49.050;9.250;2022-10-16T06:39:42;4.07;;;2.13;;
5454;SDS011;2750;49.050;9.250;2022-10-16T06:44:43;3.73;;;1.80;;
5454;SDS011;2750;49.050;9.250;2022-10-16T06:49:47;3.43;;;1.83;;
5454;SDS011;2750;49.050;9.250;2022-10-16T06:54:49;2.20;;;2.00;;
5454;SDS011;2750;49.050;9.250;2022-10-16T06:59:51;4.20;;;1.83;;
5454;SDS011;2750;49.050;9.250;2022-10-16T07:04:53;4.47;;;1.73;;
5454;SDS011;2750;49.050;9.250;2022-10-16T07:09:56;5.47;;;1.87;;
5454;SDS011;2750;49.050;9.250;2022-10-16T07:14:58;3.97;;;2.00;;
5454;SDS011;2750;49.050;9.250;2022-10-16T07:20:01;3.70;;;2.13;;
5454;SDS011;2750;49.050;9.250;2022-10-16T07:25:03;3.40;;;2.20;;
5454;SDS011;2750;49.050;9.250;2022-10-16T07:30:06;3.90;;;1.63;;
5454;SDS011;2750;49.050;9.250;2022-10-16T07:35:10;4.10;;;1.83;;
5454;SDS011;2750;49.050;9.250;2022-10-16T07:40:12;5.20;;;1.93;;
5454;SDS011;2750;49.050;9.250;2022-10-16T07:45:14;3.13;;;1.70;;
5454;SDS011;2750;49.050;9.250;2022-10-16T07:50:17;1.80;;;1.70;;
5454;SDS011;2750;49.050;9.250;2022-10-16T07:55:18;2.30;;;1.70;;
5454;SDS011;2750;49.050;9.250;2022-10-16T08:00:20;5.00;;;2.00;;
5454;SDS011;2750;49.050;9.250;2022-10-16T08:05:22;3.70;;;1.70;;
5454;SDS011;2750;49.050;9.250;2022-10-16T08:10:25;5.47;;;1.60;;
5454;SDS011;2750;49.050;9.250;2022-10-16T08:15:27;3.37;;;1.60;;
5454;SDS011;2750;49.050;9.250;2022-10-16T08:20:30;2.43;;;1.90;;
5454;SDS011;2750;49.050;9.250;2022-10-16T08:25:34;3.73;;;1.77;;
5454;SDS011;2750;49.050;9.250;2022-10-16T08:30:35;1.77;;;1.43;;
5454;SDS011;2750;49.050;9.250;2022-10-16T08:35:38;1.60;;;1.50;;
5454;SDS011;2750;49.050;9.250;2022-10-16T08:40:41;3.13;;;1.87;;
5454;SDS011;2750;49.050;9.250;2022-10-16T08:45:46;2.87;;;1.73;;
5454;SDS011;2750;49.050;9.250;2022-10-16T08:51:03;4.57;;;2.17;;
5454;SDS011;2750;49.050;9.250;2022-10-16T08:56:06;5.13;;;1.80;;
5454;SDS011;2750;49.050;9.250;2022-10-16T09:01:10;1.97;;;1.80;;
5454;SDS011;2750;49.050;9.250;2022-10-16T09:06:21;3.63;;;1.80;;
5454;SDS011;2750;49.050;9.250;2022-10-16T09:11:34;2.17;;;1.97;;
5454;SDS011;2750;49.050;9.250;2022-10-16T09:16:44;4.37;;;2.03;;
5454;SDS011;2750;49.050;9.250;2022-10-16T09:21:52;4.03;;;1.83;;
5454;SDS011;2750;49.050;9.250;2022-10-16T09:26:55;2.70;;;1.70;;
5454;SDS011;2750;49.050;9.250;2022-10-16T09:31:56;4.70;;;1.60;;
5454;SDS011;2750;49.050;9.250;2022-10-16T09:37:10;2.50;;;1.57;;
5454;SDS011;2750;49.050;9.250;2022-10-16T09:42:15;3.00;;;1.87;;
5454;SDS011;2750;49.050;9.250;2022-10-16T09:47:19;1.77;;;1.52;;
5454;SDS011;2750;49.050;9.250;2022-10-16T09:52:25;2.88;;;1.70;;
5454;SDS011;2750;49.050;9.250;2022-10-16T09:57:27;1.85;;;1.65;;
5454;SDS011;2750;49.050;9.250;2022-10-16T10:02:30;3.03;;;1.70;;
5454;SDS011;2750;49.050;9.250;2022-10-16T10:07:38;2.05;;;1.83;;
5454;SDS011;2750;49.050;9.250;2022-10-16T10:12:45;2.50;;;1.67;;
5454;SDS011;2750;49.050;9.250;2022-10-16T10:17:48;4.57;;;1.98;;
5454;SDS011;2750;49.050;9.250;2022-10-16T10:22:53;4.63;;;1.83;;
5454;SDS011;2750;49.050;9.250;2022-10-16T10:33:20;3.10;;;1.80;;
5454;SDS011;2750;49.050;9.250;2022-10-16T10:38:33;6.75;;;2.35;;
5454;SDS011;2750;49.050;9.250;2022-10-16T10:43:44;5.95;;;2.15;;
5454;SDS011;2750;49.050;9.250;2022-10-16T10:48:58;3.92;;;2.10;;
5454;SDS011;2750;49.050;9.250;2022-10-16T10:54:22;4.38;;;1.90;;
5454;SDS011;2750;49.050;9.250;2022-10-16T10:59:49;2.20;;;1.67;;
5454;SDS011;2750;49.050;9.250;2022-10-16T11:10:30;3.83;;;1.67;;
5454;SDS011;2750;49.050;9.250;2022-10-16T11:15:41;1.98;;;1.80;;
5454;SDS011;2750;49.050;9.250;2022-10-16T11:20:47;2.47;;;2.10;;
5454;SDS011;2750;49.050;9.250;2022-10-16T11:25:53;2.10;;;1.90;;
5454;SDS011;2750;49.050;9.250;2022-10-16T11:30:59;3.35;;;1.85;;
5454;SDS011;2750;49.050;9.250;2022-10-16T11:36:08;3.10;;;1.80;;
5454;SDS011;2750;49.050;9.250;2022-10-16T11:41:20;4.47;;;2.08;;
5454;SDS011;2750;49.050;9.250;2022-10-16T11:46:28;2.92;;;1.75;;
5454;SDS011;2750;49.050;9.250;2022-10-16T11:51:35;5.13;;;1.90;;
5454;SDS011;2750;49.050;9.250;2022-10-16T11:56:40;4.80;;;1.90;;
5454;SDS011;2750;49.050;9.250;2022-10-16T12:01:46;5.00;;;1.88;;
5454;SDS011;2750;49.050;9.250;2022-10-16T12:06:52;4.18;;;2.17;;
5454;SDS011;2750;49.050;9.250;2022-10-16T12:12:01;5.35;;;2.15;;
5454;SDS011;2750;49.050;9.250;2022-10-16T12:17:03;3.22;;;2.15;;
5454;SDS011;2750;49.050;9.250;2022-10-16T12:22:23;2.55;;;1.58;;
5454;SDS011;2750;49.050;9.250;2022-10-16T12:27:30;3.63;;;2.08;;
5454;SDS011;2750;49.050;9.250;2022-10-16T12:32:34;2.20;;;1.98;;
5454;SDS011;2750;49.050;9.250;2022-10-16T12:37:39;2.00;;;1.65;;
5454;SDS011;2750;49.050;9.250;2022-10-16T12:42:42;2.80;;;1.77;;
5454;SDS011;2750;49.050;9.250;2022-10-16T12:47:47;2.35;;;1.90;;
5454;SDS011;2750;49.050;9.250;2022-10-16T12:52:51;2.47;;;1.80;;
5454;SDS011;2750;49.050;9.250;2022-10-16T12:57:59;2.88;;;2.03;;
5454;SDS011;2750;49.050;9.250;2022-10-16T13:09:00;3.08;;;1.45;;
5454;SDS011;2750;49.050;9.250;2022-10-16T13:14:19;5.40;;;2.22;;
5454;SDS011;2750;49.050;9.250;2022-10-16T13:19:35;1.90;;;1.80;;
5454;SDS011;2750;49.050;9.250;2022-10-16T13:24:48;3.47;;;2.08;;
5454;SDS011;2750;49.050;9.250;2022-10-16T13:30:02;2.20;;;1.50;;
5454;SDS011;2750;49.050;9.250;2022-10-16T13:35:20;2.50;;;1.98;;
5454;SDS011;2750;49.050;9.250;2022-10-16T13:40:24;2.35;;;1.90;;
5454;SDS011;2750;49.050;9.250;2022-10-16T13:45:27;3.35;;;1.88;;
5454;SDS011;2750;49.050;9.250;2022-10-16T13:50:28;2.60;;;1.98;;
5454;SDS011;2750;49.050;9.250;2022-10-16T13:55:30;2.97;;;2.15;;
5454;SDS011;2750;49.050;9.250;2022-10-16T14:00:34;2.58;;;1.70;;
5454;SDS011;2750;49.050;9.250;2022-10-16T14:05:35;3.42;;;1.90;;
5454;SDS011;2750;49.050;9.250;2022-10-16T14:10:50;2.30;;;2.10;;
5454;SDS011;2750;49.050;9.250;2022-10-16T14:15:56;2.10;;;1.90;;
5454;SDS011;2750;49.050;9.250;2022-10-16T14:21:02;2.28;;;2.08;;
5454;SDS011;2750;49.050;9.250;2022-10-16T14:26:12;5.25;;;2.00;;
5454;SDS011;2750;49.050;9.250;2022-10-16T14:31:27;3.42;;;2.40;;
5454;SDS011;2750;49.050;9.250;2022-10-16T14:36:30;5.38;;;2.03;;
5454;SDS011;2750;49.050;9.250;2022-10-16T14:41:33;4.10;;;2.72;;
5454;SDS011;2750;49.050;9.250;2022-10-16T14:46:44;3.40;;;2.80;;
5454;SDS011;2750;49.050;9.250;2022-10-16T14:51:46;2.95;;;2.40;;
5454;SDS011;2750;49.050;9.250;2022-10-16T14:56:50;4.00;;;2.30;;
5454;SDS011;2750;49.050;9.250;2022-10-16T15:01:54;3.65;;;2.47;;
5454;SDS011;2750;49.050;9.250;2022-10-16T15:06:56;5.10;;;2.58;;
5454;SDS011;2750;49.050;9.250;2022-10-16T15:11:57;3.75;;;2.65;;
5454;SDS011;2750;49.050;9.250;2022-10-16T15:17:00;2.10;;;1.90;;
5454;SDS011;2750;49.050;9.250;2022-10-16T15:22:02;3.10;;;2.42;;
5454;SDS011;2750;49.050;9.250;2022-10-16T15:27:04;2.47;;;2.28;;
5454;SDS011;2750;49.050;9.250;2022-10-16T15:32:08;3.40;;;2.90;;
5454;SDS011;2750;49.050;9.250;2022-10-16T15:37:10;3.90;;;2.78;;
5454;SDS011;2750;49.050;9.250;2022-10-16T15:42:13;5.07;;;2.90;;
5454;SDS011;2750;49.050;9.250;2022-10-16T15:47:16;6.10;;;2.95;;
5454;SDS011;2750;49.050;9.250;2022-10-16T15:52:18;6.55;;;2.78;;
5454;SDS011;2750;49.050;9.250;2022-10-16T15:57:19;7.57;;;2.47;;
5454;SDS011;2750;49.050;9.250;2022-10-16T16:02:23;9.15;;;2.83;;
5454;SDS011;2750;49.050;9.250;2022-10-16T16:07:24;3.60;;;2.83;;
5454;SDS011;2750;49.050;9.250;2022-10-16T16:12:27;6.80;;;2.60;;
5454;SDS011;2750;49.050;9.250;2022-10-16T16:17:31;4.75;;;2.55;;
5454;SDS011;2750;49.050;9.250;2022-10-16T16:22:33;8.07;;;4.07;;
5454;SDS011;2750;49.050;9.250;2022-10-16T16:27:34;10.18;;;4.00;;
5454;SDS011;2750;49.050;9.250;2022-10-16T16:32:39;6.07;;;3.45;;
5454;SDS011;2750;49.050;9.250;2022-10-16T16:37:42;5.95;;;3.38;;
5454;SDS011;2750;49.050;9.250;2022-10-16T16:42:44;7.53;;;3.73;;
5454;SDS011;2750;49.050;9.250;2022-10-16T16:47:46;6.57;;;3.50;;
5454;SDS011;2750;49.050;9.250;2022-10-16T16:52:48;3.73;;;2.90;;
5454;SDS011;2750;49.050;9.250;2022-10-16T16:57:50;5.63;;;3.67;;
5454;SDS011;2750;49.050;9.250;2022-10-16T17:02:52;7.50;;;2.93;;
5454;SDS011;2750;49.050;9.250;2022-10-16T17:07:54;9.63;;;3.20;;
5454;SDS011;2750;49.050;9.250;2022-10-16T17:12:55;9.63;;;4.47;;
5454;SDS011;2750;49.050;9.250;2022-10-16T17:17:58;7.50;;;3.27;;
5454;SDS011;2750;49.050;9.250;2022-10-16T17:23:00;10.10;;;3.40;;
5454;SDS011;2750;49.050;9.250;2022-10-16T17:28:01;21.70;;;11.47;;
5454;SDS011;2750;49.050;9.250;2022-10-16T17:33:05;8.07;;;5.20;;
5454;SDS011;2750;49.050;9.250;2022-10-16T17:38:07;7.67;;;4.27;;
5454;SDS011;2750;49.050;9.250;2022-10-16T17:43:09;7.07;;;3.77;;
5454;SDS011;2750;49.050;9.250;2022-10-16T17:48:12;8.60;;;5.70;;
5454;SDS011;2750;49.050;9.250;2022-10-16T17:53:13;5.60;;;4.43;;
5454;SDS011;2750;49.050;9.250;2022-10-16T17:58:15;7.80;;;4.57;;
5454;SDS011;2750;49.050;9.250;2022-10-16T18:03:17;6.00;;;4.33;;
5454;SDS011;2750;49.050;9.250;2022-10-16T18:08:19;6.90;;;4.90;;
5454;SDS011;2750;49.050;9.250;2022-10-16T18:13:20;5.40;;;3.63;;
5454;SDS011;2750;49.050;9.250;2022-10-16T18:18:24;5.87;;;3.70;;
5454;SDS011;2750;49.050;9.250;2022-10-16T18:23:25;4.80;;;3.70;;
5454;SDS011;2750;49.050;9.250;2022-10-16T18:28:27;5.73;;;3.50;;
5454;SDS011;2750;49.050;9.250;2022-10-16T18:33:31;4.50;;;3.77;;
5454;SDS011;2750;49.050;9.250;2022-10-16T18:38:33;5.67;;;3.13;;
5454;SDS011;2750;49.050;9.250;2022-10-16T18:43:36;8.00;;;6.10;;
5454;SDS011;2750;49.050;9.250;2022-10-16T18:48:40;4.40;;;3.90;;
5454;SDS011;2750;49.050;9.250;2022-10-16T18:53:42;8.97;;;5.17;;
5454;SDS011;2750;49.050;9.250;2022-10-16T18:58:45;10.10;;;4.37;;
5454;SDS011;2750;49.050;9.250;2022-10-16T19:03:51;6.23;;;3.10;;
5454;SDS011;2750;49.050;9.250;2022-10-16T19:08:54;13.03;;;5.67;;
5454;SDS011;2750;49.050;9.250;2022-10-16T19:13:57;8.90;;;3.70;;
5454;SDS011;2750;49.050;9.250;2022-10-16T19:19:01;11.80;;;3.80;;
5454;SDS011;2750;49.050;9.250;2022-10-16T19:24:04;5.13;;;3.57;;
5454;SDS011;2750;49.050;9.250;2022-10-16T19:29:06;8.27;;;3.83;;
5454;SDS011;2750;49.050;9.250;2022-10-16T19:34:10;9.37;;;4.40;;
5454;SDS011;2750;49.050;9.250;2022-10-16T19:39:12;5.27;;;3.27;;
5454;SDS011;2750;49.050;9.250;2022-10-16T19:44:16;9.80;;;4.57;;
5454;SDS011;2750;49.050;9.250;2022-10-16T19:49:19;9.73;;;4.90;;
5454;SDS011;2750;49.050;9.250;2022-10-16T19:54:21;4.77;;;3.87;;
5454;SDS011;2750;49.050;9.250;2022-10-16T19:59:22;5.60;;;4.03;;
5454;SDS011;2750;49.050;9.250;2022-10-16T20:04:25;5.63;;;3.47;;
5454;SDS011;2750;49.050;9.250;2022-10-16T20:09:27;5.47;;;3.23;;
5454;SDS011;2750;49.050;9.250;2022-10-16T20:14:28;11.47;;;3.43;;
5454;SDS011;2750;49.050;9.250;2022-10-16T20:19:31;9.13;;;3.10;;
5454;SDS011;2750;49.050;9.250;2022-10-16T20:24:33;11.00;;;3.40;;
5454;SDS011;2750;49.050;9.250;2022-10-16T20:29:34;4.47;;;2.97;;
5454;SDS011;2750;49.050;9.250;2022-10-16T20:34:37;6.93;;;3.23;;
5454;SDS011;2750;49.050;9.250;2022-10-16T20:39:39;5.13;;;3.80;;
5454;SDS011;2750;49.050;9.250;2022-10-16T20:44:40;6.57;;;3.23;;
5454;SDS011;2750;49.050;9.250;2022-10-16T20:49:43;7.33;;;2.70;;
5454;SDS011;2750;49.050;9.250;2022-10-16T20:54:44;5.93;;;3.40;;
5454;SDS011;2750;49.050;9.250;2022-10-16T20:59:47;3.73;;;2.97;;
5454;SDS011;2750;49.050;9.250;2022-10-16T21:04:51;8.30;;;2.90;;
5454;SDS011;2750;49.050;9.250;2022-10-16T21:09:53;4.53;;;2.70;;
5454;SDS011;2750;49.050;9.250;2022-10-16T21:14:55;4.37;;;2.47;;
5454;SDS011;2750;49.050;9.250;2022-10-16T21:19:58;8.37;;;3.07;;
5454;SDS011;2750;49.050;9.250;2022-10-16T21:25:00;5.17;;;2.73;;
5454;SDS011;2750;49.050;9.250;2022-10-16T21:30:01;3.90;;;3.50;;
5454;SDS011;2750;49.050;9.250;2022-10-16T21:35:05;7.80;;;3.83;;
5454;SDS011;2750;49.050;9.250;2022-10-16T21:40:07;4.30;;;3.50;;
5454;SDS011;2750;49.050;9.250;2022-10-16T21:45:10;5.70;;;3.33;;
5454;SDS011;2750;49.050;9.250;2022-10-16T21:50:12;5.80;;;3.23;;
5454;SDS011;2750;49.050;9.250;2022-10-16T21:55:14;7.27;;;3.33;;
5454;SDS011;2750;49.050;9.250;2022-10-16T22:00:16;4.13;;;3.23;;
5454;SDS011;2750;49.050;9.250;2022-10-16T22:05:18;7.13;;;3.67;;
5454;SDS011;2750;49.050;9.250;2022-10-16T22:10:20;6.83;;;3.13;;
5454;SDS011;2750;49.050;9.250;2022-10-16T22:15:21;9.57;;;3.57;;
5454;SDS011;2750;49.050;9.250;2022-10-16T22:20:24;4.83;;;3.00;;
5454;SDS011;2750;49.050;9.250;2022-10-16T22:25:26;3.40;;;3.10;;
5454;SDS011;2750;49.050;9.250;2022-10-16T22:30:27;6.17;;;3.73;;
5454;SDS011;2750;49.050;9.250;2022-10-16T22:35:30;8.83;;;3.30;;
5454;SDS011;2750;49.050;9.250;2022-10-16T22:40:36;8.20;;;3.63;;
5454;SDS011;2750;49.050;9.250;2022-10-16T22:45:39;9.90;;;3.40;;
5454;SDS011;2750;49.050;9.250;2022-10-16T22:50:41;10.77;;;3.53;;
5454;SDS011;2750;49.050;9.250;2022-10-16T22:55:43;12.27;;;3.57;;
5454;SDS011;2750;49.050;9.250;2022-10-16T23:00:44;4.83;;;3.20;;
5454;SDS011;2750;49.050;9.250;2022-10-16T23:05:47;6.10;;;3.60;;
5454;SDS011;2750;49.050;9.250;2022-10-16T23:10:49;7.03;;;3.97;;
5454;SDS011;2750;49.050;9.250;2022-10-16T23:15:50;6.37;;;3.70;;
5454;SDS011;2750;49.050;9.250;2022-10-16T23:20:53;8.03;;;4.47;;
5454;SDS011;2750;49.050;9.250;2022-10-16T23:25:54;6.93;;;4.00;;
5454;SDS011;2750;49.050;9.250;2022-10-16T23:30:56;5.73;;;4.17;;
5454;SDS011;2750;49.050;9.250;2022-10-16T23:35:59;6.43;;;3.83;;
5454;SDS011;2750;49.050;9.250;2022-10-16T23:41:05;7.67;;;3.67;;
5454;SDS011;2750;49.050;9.250;2022-10-16T23:46:07;6.77;;;3.57;;
5454;SDS011;2750;49.050;9.250;2022-10-16T23:51:12;4.83;;;3.43;;
5454;SDS011;2750;49.050;9.250;2022-10-16T23:56:14;4.63;;;2.83;;
